Terminal Aerodrome Forecast
Issued by NWS

Home | Current Version | Previous Version | Text Only | Print | Product List | Glossary On
Versions: 1 2 3 4 5 6 7 8 9 10 11 12 13 14 15 16 17 18 19 20 21 22 23
506
FTUS43 KDVN 181947 AAC
TAFBRL
TAF AMD
KBRL 181947Z 1820/1918 30010KT 4SM -DZ BR SCT008 OVC016
     FM182200 34013G18KT 2SM -DZ BR OVC010
     FM190800 34012KT P6SM SCT010 BKN020
     FM191300 36010KT P6SM SCT020=

USA.gov is the U.S. government's official web portal to all federal, state and local government web resources and services.